Terminal Aerodrome Forecast
Issued by NWS Portland, OR

Current Version | Previous Version | Text Only | Print | Product List | Glossary On
Versions: 1 2 3 4 5 6 7 8 9 10 11 12 13 14 15 16 17 18 19 20 21 22 23
000
FTUS46 KPQR 251741
TAFSLE
TAF
KSLE 251741Z 2518/2618 18006KT P6SM BKN020 OVC040
     FM251900 17009KT P6SM -RA OVC045
     FM260000 17011KT 6SM -RA BKN025 OVC045
     FM260300 19008KT P6SM -RA SCT015 OVC025=

USA.gov is the U.S. government's official web portal to all federal, state and local government web resources and services.